createdAt,value
2016-04-16T00:00:12.133Z,992.92
2016-04-16T00:01:12.168Z,992.87
2016-04-16T00:02:12.202Z,992.87
2016-04-16T00:03:12.236Z,992.89
2016-04-16T00:04:12.270Z,992.89
2016-04-16T00:05:12.304Z,992.83
2016-04-16T00:06:12.338Z,992.87
2016-04-16T00:07:12.371Z,992.87
2016-04-16T00:08:12.405Z,992.86
2016-04-16T00:09:12.455Z,992.83
2016-04-16T00:10:12.473Z,992.84
2016-04-16T00:11:12.507Z,992.82
2016-04-16T00:12:12.540Z,992.84
2016-04-16T00:13:12.590Z,992.82
2016-04-16T00:14:12.609Z,992.79
2016-04-16T00:15:12.659Z,992.77
2016-04-16T00:16:12.693Z,992.74
2016-04-16T00:17:12.712Z,992.71
2016-04-16T00:18:12.760Z,992.7
2016-04-16T00:19:12.795Z,992.71
2016-04-16T00:20:12.828Z,992.68
2016-04-16T00:21:12.862Z,992.69
2016-04-16T00:22:12.912Z,992.66
2016-04-16T00:23:12.931Z,992.66
2016-04-16T00:24:12.965Z,992.59
2016-04-16T00:25:12.998Z,992.57
2016-04-16T00:26:13.032Z,992.49
2016-04-16T00:27:13.066Z,992.51
2016-04-16T00:28:13.116Z,992.5
2016-04-16T00:29:13.150Z,992.47
2016-04-16T00:30:13.183Z,992.51
2016-04-16T00:31:13.217Z,992.48
2016-04-16T00:32:13.235Z,992.46
2016-04-16T00:33:13.285Z,992.45
2016-04-16T00:34:13.319Z,992.43
2016-04-16T00:35:13.353Z,992.43
2016-04-16T00:36:13.388Z,992.42
2016-04-16T00:37:13.421Z,992.43
2016-04-16T00:38:13.471Z,992.41
2016-04-16T00:39:13.504Z,992.39
2016-04-16T00:40:13.523Z,992.44
2016-04-16T00:41:13.572Z,992.39
2016-04-16T00:42:13.606Z,992.36
2016-04-16T00:43:13.640Z,992.38
2016-04-16T00:44:13.673Z,992.41
2016-04-16T00:45:13.723Z,992.36
2016-04-16T00:46:13.742Z,992.36
2016-04-16T00:47:13.776Z,992.36
2016-04-16T00:48:13.826Z,992.33
2016-04-16T00:49:13.860Z,992.33
2016-04-16T00:50:13.893Z,992.36
2016-04-16T00:51:13.912Z,992.35
2016-04-16T00:52:13.961Z,992.32
2016-04-16T00:53:13.996Z,992.31
2016-04-16T00:54:14.029Z,992.28
2016-04-16T00:55:14.064Z,992.27
2016-04-16T00:56:14.098Z,992.22
2016-04-16T00:57:14.131Z,992.21
2016-04-16T00:58:14.165Z,992.17
2016-04-16T00:59:14.214Z,992.12
2016-04-16T01:00:14.248Z,992.13
2016-04-16T01:01:14.282Z,992.13
2016-04-16T01:02:14.300Z,992.14
2016-04-16T01:03:14.350Z,992.12
2016-04-16T01:04:14.400Z,992.16
2016-04-16T01:05:14.419Z,992.19
2016-04-16T01:06:14.452Z,992.15
2016-04-16T01:07:14.486Z,992.17
2016-04-16T01:08:14.504Z,992.14
2016-04-16T01:09:14.554Z,992.16
2016-04-16T01:10:14.588Z,992.14
2016-04-16T01:11:14.621Z,992.13
2016-04-16T01:12:14.655Z,992.12
2016-04-16T01:13:14.689Z,992.15
2016-04-16T01:14:14.724Z,992.12
2016-04-16T01:15:14.757Z,992.13
2016-04-16T01:16:14.791Z,992.11
2016-04-16T01:17:14.856Z,992.12
2016-04-16T01:18:14.875Z,992.12
2016-04-16T01:19:14.924Z,992.09
2016-04-16T01:20:14.942Z,992.1
2016-04-16T01:21:14.977Z,992.12
2016-04-16T01:22:15.011Z,992.07
2016-04-16T01:23:15.060Z,992.08
2016-04-16T01:24:15.078Z,992.06
2016-04-16T01:25:15.112Z,992.05
2016-04-16T01:26:15.146Z,992.04
2016-04-16T01:27:15.195Z,992.04
2016-04-16T01:28:15.214Z,992.02
2016-04-16T01:29:15.264Z,992.02
2016-04-16T01:30:15.297Z,992.01
2016-04-16T01:31:15.331Z,992.04
2016-04-16T01:32:15.366Z,992.02
2016-04-16T01:33:15.399Z,992.03
2016-04-16T01:34:15.433Z,991.99
2016-04-16T01:35:15.577Z,991.96
2016-04-16T01:36:15.516Z,991.94
2016-04-16T01:37:15.535Z,991.91
2016-04-16T01:38:15.569Z,991.9
2016-04-16T01:39:15.618Z,991.94
2016-04-16T01:40:15.652Z,991.92
2016-04-16T01:41:15.702Z,991.93
2016-04-16T01:42:15.720Z,991.89
2016-04-16T01:43:15.754Z,991.9
2016-04-16T01:44:15.788Z,991.91
2016-04-16T01:45:15.823Z,991.93
2016-04-16T01:46:15.872Z,991.94
2016-04-16T01:47:15.891Z,991.95
2016-04-16T01:48:15.940Z,991.94
2016-04-16T01:49:15.974Z,991.93
2016-04-16T01:50:15.992Z,991.94
2016-04-16T01:51:16.042Z,991.91
2016-04-16T01:52:16.091Z,991.89
2016-04-16T01:53:16.109Z,991.87
2016-04-16T01:54:16.143Z,991.84
2016-04-16T01:55:16.178Z,991.81
2016-04-16T01:56:16.212Z,991.8
2016-04-16T01:57:16.245Z,991.81
2016-04-16T01:58:16.279Z,991.8
2016-04-16T01:59:16.328Z,991.79
2016-04-16T02:00:16.363Z,991.8
2016-04-16T02:01:16.411Z,991.74
2016-04-16T02:02:16.446Z,991.75
2016-04-16T02:03:16.484Z,991.7
2016-04-16T02:04:16.502Z,991.75
2016-04-16T02:05:16.598Z,991.74
2016-04-16T02:06:16.570Z,991.75
2016-04-16T02:07:16.620Z,991.74
2016-04-16T02:08:16.638Z,991.72
2016-04-16T02:09:16.687Z,991.68
2016-04-16T02:10:16.706Z,991.69
2016-04-16T02:11:16.756Z,991.66
2016-04-16T02:12:16.775Z,991.68
2016-04-16T02:13:16.823Z,991.68
2016-04-16T02:14:16.858Z,991.67
2016-04-16T02:15:16.891Z,991.67
2016-04-16T02:16:16.925Z,991.65
2016-04-16T02:17:16.943Z,991.66
2016-04-16T02:18:16.993Z,991.62
2016-04-16T02:19:17.027Z,991.62
2016-04-16T02:20:17.077Z,991.61
2016-04-16T02:21:17.110Z,991.58
2016-04-16T02:22:17.132Z,991.57
2016-04-16T02:23:17.180Z,991.54
2016-04-16T02:24:17.215Z,991.54
2016-04-16T02:25:17.248Z,991.58
2016-04-16T02:26:17.282Z,991.56
2016-04-16T02:27:17.316Z,991.52
2016-04-16T02:28:17.350Z,991.51
2016-04-16T02:29:17.385Z,991.52
2016-04-16T02:30:17.418Z,991.51
2016-04-16T02:31:17.452Z,991.48
2016-04-16T02:32:17.486Z,991.51
2016-04-16T02:33:17.520Z,991.44
2016-04-16T02:34:17.569Z,991.46
2016-04-16T02:35:17.603Z,991.45
2016-04-16T02:36:17.637Z,991.47
2016-04-16T02:37:17.672Z,991.47
2016-04-16T02:38:17.706Z,991.4
2016-04-16T02:39:17.739Z,991.43
2016-04-16T02:40:17.773Z,991.4
2016-04-16T02:41:17.807Z,991.36
2016-04-16T02:42:17.856Z,991.41
2016-04-16T02:43:17.890Z,991.33
2016-04-16T02:44:17.965Z,991.32
2016-04-16T02:45:18.027Z,991.33
2016-04-16T02:46:18.118Z,991.28
2016-04-16T02:47:18.196Z,991.26
2016-04-16T02:48:18.272Z,991.28
2016-04-16T02:49:18.322Z,991.22
2016-04-16T02:50:18.371Z,991.23
2016-04-16T02:51:18.405Z,991.22
2016-04-16T02:52:18.470Z,991.25
2016-04-16T02:53:18.520Z,991.23
2016-04-16T02:54:18.544Z,991.26
2016-04-16T02:55:18.599Z,991.22
2016-04-16T02:56:18.623Z,991.22
2016-04-16T02:57:18.678Z,991.21
2016-04-16T02:58:18.717Z,991.23
2016-04-16T02:59:18.754Z,991.22
2016-04-16T03:00:18.790Z,991.2
2016-04-16T03:01:18.825Z,991.22
2016-04-16T03:02:18.878Z,991.16
2016-04-16T03:03:18.929Z,991.15
2016-04-16T03:04:18.948Z,991.1
2016-04-16T03:05:18.983Z,991.11
2016-04-16T03:06:19.017Z,991.12
2016-04-16T03:07:19.052Z,991.11
2016-04-16T03:08:19.102Z,991.12
2016-04-16T03:09:19.121Z,991.1
2016-04-16T03:10:19.155Z,991.11
2016-04-16T03:11:19.190Z,991.07
2016-04-16T03:12:19.225Z,991.07
2016-04-16T03:13:19.259Z,991.07
2016-04-16T03:14:19.292Z,991.05
2016-04-16T03:15:19.326Z,991.05
2016-04-16T03:16:19.376Z,991.04
2016-04-16T03:17:19.425Z,991.02
2016-04-16T03:18:19.459Z,991.02
2016-04-16T03:19:19.477Z,991.03
2016-04-16T03:20:19.512Z,991.05
2016-04-16T03:21:19.545Z,991.06
2016-04-16T03:22:19.580Z,991.05
2016-04-16T03:23:19.629Z,991.03
2016-04-16T03:24:19.647Z,991.01
2016-04-16T03:25:19.680Z,991.04
2016-04-16T03:26:19.715Z,991.01
2016-04-16T03:27:19.749Z,991
2016-04-16T03:28:19.799Z,991.02
2016-04-16T03:29:19.833Z,990.96
2016-04-16T03:30:19.866Z,991.01
2016-04-16T03:31:19.885Z,990.97
2016-04-16T03:32:19.935Z,990.97
2016-04-16T03:33:19.984Z,990.96
2016-04-16T03:34:20.002Z,990.98
2016-04-16T03:35:20.036Z,990.92
2016-04-16T03:36:20.070Z,990.9
2016-04-16T03:37:20.104Z,990.92
2016-04-16T03:38:20.138Z,990.92
2016-04-16T03:39:20.156Z,990.92
2016-04-16T03:40:20.206Z,990.87
2016-04-16T03:41:20.256Z,990.85
2016-04-16T03:42:20.289Z,990.87
2016-04-16T03:43:20.309Z,990.88
2016-04-16T03:44:20.342Z,990.84
2016-04-16T03:45:20.376Z,990.82
2016-04-16T03:46:20.409Z,990.77
2016-04-16T03:47:20.444Z,990.83
2016-04-16T03:48:20.493Z,990.79
2016-04-16T03:49:20.527Z,990.78
2016-04-16T03:50:20.561Z,990.83
2016-04-16T03:51:20.594Z,990.8
2016-04-16T03:52:20.629Z,990.86
2016-04-16T03:53:20.663Z,990.9
2016-04-16T03:54:20.697Z,990.83
2016-04-16T03:55:20.730Z,990.88
2016-04-16T03:56:20.764Z,990.82
2016-04-16T03:57:20.799Z,990.83
2016-04-16T03:58:20.832Z,990.83
2016-04-16T03:59:20.866Z,990.78
2016-04-16T04:00:20.899Z,990.81
2016-04-16T04:01:20.949Z,990.8
2016-04-16T04:02:20.984Z,990.89
2016-04-16T04:03:21.002Z,990.9
2016-04-16T04:04:21.052Z,990.88
2016-04-16T04:05:21.085Z,990.88
2016-04-16T04:06:21.120Z,990.94
2016-04-16T04:07:21.153Z,990.96
2016-04-16T04:08:21.171Z,990.95
2016-04-16T04:09:21.206Z,990.95
2016-04-16T04:10:21.256Z,990.94
2016-04-16T04:11:21.290Z,990.98
2016-04-16T04:12:21.323Z,990.94
2016-04-16T04:13:21.373Z,990.9
2016-04-16T04:14:21.391Z,990.93
2016-04-16T04:15:21.425Z,990.93
2016-04-16T04:16:21.475Z,990.9
2016-04-16T04:17:21.508Z,990.94
2016-04-16T04:18:21.558Z,990.93
2016-04-16T04:19:21.576Z,990.93
2016-04-16T04:20:21.611Z,990.94
2016-04-16T04:21:21.645Z,990.94
2016-04-16T04:22:21.678Z,990.96
2016-04-16T04:23:21.712Z,991.03
2016-04-16T04:24:21.761Z,991.03
2016-04-16T04:25:21.796Z,991.12
2016-04-16T04:26:21.813Z,991.12
2016-04-16T04:27:21.847Z,991.13
2016-04-16T04:28:21.897Z,991.09
2016-04-16T04:29:21.916Z,991.09
2016-04-16T04:30:21.950Z,991.04
2016-04-16T04:31:21.983Z,991.03
2016-04-16T04:32:22.018Z,991.07
2016-04-16T04:33:22.067Z,991.05
2016-04-16T04:34:22.102Z,991.06
2016-04-16T04:35:22.135Z,991.09
2016-04-16T04:36:22.169Z,991.1
2016-04-16T04:37:22.204Z,991.13
2016-04-16T04:38:22.237Z,991.1
2016-04-16T04:39:22.271Z,991.09
2016-04-16T04:40:22.304Z,991.11
2016-04-16T04:41:22.339Z,991.07
2016-04-16T04:42:22.387Z,991.07
2016-04-16T04:43:22.423Z,991.13
2016-04-16T04:44:22.456Z,991.13
2016-04-16T04:45:22.506Z,991.16
2016-04-16T04:46:22.524Z,991.13
2016-04-16T04:47:22.558Z,991.14
2016-04-16T04:48:22.592Z,991.15
2016-04-16T04:49:22.625Z,991.15
2016-04-16T04:50:22.659Z,991.16
2016-04-16T04:51:22.694Z,991.12
2016-04-16T04:52:22.728Z,991.13
2016-04-16T04:53:22.778Z,991.12
2016-04-16T04:54:22.795Z,991.08
2016-04-16T04:55:22.845Z,991.06
2016-04-16T04:56:22.879Z,991.14
2016-04-16T04:57:22.913Z,991.12
2016-04-16T04:58:22.946Z,991.1
2016-04-16T04:59:22.997Z,991.11
2016-04-16T05:00:23.015Z,991.14
2016-04-16T05:01:23.049Z,991.11
2016-04-16T05:02:23.099Z,991.13
2016-04-16T05:03:23.116Z,991.16
2016-04-16T05:04:23.151Z,991.2
2016-04-16T05:05:23.199Z,991.22
2016-04-16T05:06:23.234Z,991.18
2016-04-16T05:07:23.284Z,991.21
2016-04-16T05:08:23.321Z,991.18
2016-04-16T05:09:23.338Z,991.24
2016-04-16T05:10:23.373Z,991.19
2016-04-16T05:11:23.406Z,991.25
2016-04-16T05:12:23.426Z,991.29
2016-04-16T05:13:23.474Z,991.27
2016-04-16T05:14:23.509Z,991.3
2016-04-16T05:15:23.543Z,991.3
2016-04-16T05:16:23.576Z,991.36
2016-04-16T05:17:23.609Z,991.33
2016-04-16T05:18:23.644Z,991.32
2016-04-16T05:19:23.678Z,991.38
2016-04-16T05:20:23.728Z,991.37
2016-04-16T05:21:23.746Z,991.39
2016-04-16T05:22:23.796Z,991.38
2016-04-16T05:23:23.830Z,991.38
2016-04-16T05:24:23.864Z,991.42
2016-04-16T05:25:23.882Z,991.39
2016-04-16T05:26:23.947Z,991.51
2016-04-16T05:27:23.965Z,991.46
2016-04-16T05:28:24.000Z,991.44
2016-04-16T05:29:24.033Z,991.47
2016-04-16T05:30:24.067Z,991.56
2016-04-16T05:31:24.117Z,991.49
2016-04-16T05:32:24.151Z,991.58
2016-04-16T05:33:24.185Z,991.55
2016-04-16T05:34:24.218Z,991.6
2016-04-16T05:35:24.252Z,991.61
2016-04-16T05:36:24.271Z,991.67
2016-04-16T05:37:24.321Z,991.71
2016-04-16T05:38:24.354Z,991.66
2016-04-16T05:39:24.388Z,991.66
2016-04-16T05:40:24.422Z,991.68
2016-04-16T05:41:24.457Z,991.68
2016-04-16T05:42:24.490Z,991.74
2016-04-16T05:43:24.540Z,991.7
2016-04-16T05:44:24.557Z,991.71
2016-04-16T05:45:24.607Z,991.74
2016-04-16T05:46:24.642Z,991.74
2016-04-16T05:47:24.675Z,991.74
2016-04-16T05:48:24.694Z,991.72
2016-04-16T05:49:24.743Z,991.73
2016-04-16T05:50:24.778Z,991.68
2016-04-16T05:51:24.811Z,991.73
2016-04-16T05:52:24.845Z,991.71
2016-04-16T05:53:24.879Z,991.7
2016-04-16T05:54:24.913Z,991.7
2016-04-16T05:55:24.947Z,991.71
2016-04-16T05:56:24.981Z,991.69
2016-04-16T05:57:25.014Z,991.73
2016-04-16T05:58:25.064Z,991.7
2016-04-16T05:59:25.097Z,991.7
2016-04-16T06:00:25.133Z,991.65
2016-04-16T06:01:25.166Z,991.73
2016-04-16T06:02:25.200Z,991.78
2016-04-16T06:03:25.233Z,991.72
2016-04-16T06:04:25.268Z,991.69
2016-04-16T06:05:25.302Z,991.65
2016-04-16T06:06:25.335Z,991.69
2016-04-16T06:07:25.385Z,991.69
2016-04-16T06:08:25.404Z,991.69
2016-04-16T06:09:25.437Z,991.66
2016-04-16T06:10:25.471Z,991.72
2016-04-16T06:11:25.521Z,991.7
2016-04-16T06:12:25.555Z,991.68
2016-04-16T06:13:25.590Z,991.7
2016-04-16T06:14:25.623Z,991.75
2016-04-16T06:15:25.657Z,991.73
2016-04-16T06:16:25.707Z,991.75
2016-04-16T06:17:25.726Z,991.77
2016-04-16T06:18:25.759Z,991.68
2016-04-16T06:19:25.793Z,991.75
2016-04-16T06:20:25.826Z,991.75
2016-04-16T06:21:25.876Z,991.76
2016-04-16T06:22:25.909Z,991.76
2016-04-16T06:23:25.945Z,991.74
2016-04-16T06:24:25.978Z,991.83
2016-04-16T06:25:26.012Z,991.84
2016-04-16T06:26:26.046Z,991.82
2016-04-16T06:27:26.080Z,991.87
2016-04-16T06:28:26.129Z,991.89
2016-04-16T06:29:26.148Z,991.81
2016-04-16T06:30:26.181Z,991.87
2016-04-16T06:31:26.216Z,991.87
2016-04-16T06:32:26.265Z,991.88
2016-04-16T06:33:26.299Z,991.9
2016-04-16T06:34:26.333Z,991.89
2016-04-16T06:35:26.366Z,991.92
2016-04-16T06:36:26.402Z,992.01
2016-04-16T06:37:26.435Z,991.9
2016-04-16T06:38:26.469Z,991.97
2016-04-16T06:39:26.502Z,991.93
2016-04-16T06:40:26.537Z,991.95
2016-04-16T06:41:26.571Z,991.96
2016-04-16T06:42:26.621Z,992
2016-04-16T06:43:26.655Z,992.02
2016-04-16T06:44:26.688Z,992
2016-04-16T06:45:26.722Z,991.97
2016-04-16T06:46:26.740Z,991.98
2016-04-16T06:47:26.774Z,991.97
2016-04-16T06:48:26.824Z,992.06
2016-04-16T06:49:26.857Z,992.01
2016-04-16T06:50:26.892Z,992.11
2016-04-16T06:51:26.926Z,992.09
2016-04-16T06:52:26.960Z,992.05
2016-04-16T06:53:27.009Z,992.05
2016-04-16T06:54:27.043Z,992
2016-04-16T06:55:27.078Z,992.04
2016-04-16T06:56:27.111Z,992.09
2016-04-16T06:57:27.145Z,992.06
2016-04-16T06:58:27.179Z,991.98
2016-04-16T06:59:27.213Z,992.08
2016-04-16T07:00:27.247Z,992.03
2016-04-16T07:01:27.281Z,992
2016-04-16T07:02:27.314Z,992.03
2016-04-16T07:03:27.364Z,992.05
2016-04-16T07:04:27.398Z,992.07
2016-04-16T07:05:27.432Z,992.07
2016-04-16T07:06:27.450Z,992.05
2016-04-16T07:07:27.500Z,992.09
2016-04-16T07:08:27.533Z,992.09
2016-04-16T07:09:27.568Z,992.06
2016-04-16T07:10:27.601Z,992.04
2016-04-16T07:11:27.652Z,992.13
2016-04-16T07:12:27.686Z,992.14
2016-04-16T07:13:27.718Z,992.13
2016-04-16T07:14:27.754Z,992.21
2016-04-16T07:15:27.787Z,992.17
2016-04-16T07:16:27.837Z,992.2
2016-04-16T07:17:27.855Z,992.21
2016-04-16T07:18:27.904Z,992.19
2016-04-16T07:19:27.923Z,992.18
2016-04-16T07:20:27.956Z,992.19
2016-04-16T07:21:28.006Z,992.24
2016-04-16T07:22:28.025Z,992.26
2016-04-16T07:23:28.058Z,992.28
2016-04-16T07:24:28.123Z,992.26
2016-04-16T07:25:28.142Z,992.3
2016-04-16T07:26:28.192Z,992.31
2016-04-16T07:27:28.225Z,992.36
2016-04-16T07:28:28.259Z,992.31
2016-04-16T07:29:28.294Z,992.37
2016-04-16T07:30:28.328Z,992.37
2016-04-16T07:31:28.362Z,992.38
2016-04-16T07:32:28.395Z,992.4
2016-04-16T07:33:28.430Z,992.39
2016-04-16T07:34:28.463Z,992.4
2016-04-16T07:35:28.513Z,992.42
2016-04-16T07:36:28.547Z,992.42
2016-04-16T07:37:28.580Z,992.43
2016-04-16T07:38:28.614Z,992.45
2016-04-16T07:39:28.648Z,992.44
2016-04-16T07:40:28.682Z,992.38
2016-04-16T07:41:28.733Z,992.34
2016-04-16T07:42:28.765Z,992.4
2016-04-16T07:43:28.799Z,992.28
2016-04-16T07:44:28.834Z,992.36
2016-04-16T07:45:28.852Z,992.36
2016-04-16T07:46:28.918Z,992.35
2016-04-16T07:47:28.936Z,992.37
2016-04-16T07:48:28.970Z,992.34
2016-04-16T07:49:29.004Z,992.39
2016-04-16T07:50:29.053Z,992.42
2016-04-16T07:51:29.103Z,992.42
2016-04-16T07:52:29.121Z,992.4
2016-04-16T07:53:29.171Z,992.47
2016-04-16T07:54:29.204Z,992.43
2016-04-16T07:55:29.239Z,992.48
2016-04-16T07:56:29.273Z,992.47
2016-04-16T07:57:29.323Z,992.48
2016-04-16T07:58:29.355Z,992.43
2016-04-16T07:59:29.374Z,992.48
2016-04-16T08:00:29.424Z,992.61
2016-04-16T08:01:29.458Z,992.53
2016-04-16T08:02:29.491Z,992.52
2016-04-16T08:03:29.510Z,992.53
2016-04-16T08:04:29.575Z,992.51
2016-04-16T08:05:29.609Z,992.52
2016-04-16T08:06:29.736Z,992.51
2016-04-16T08:07:29.677Z,992.7
2016-04-16T08:08:29.711Z,992.56
2016-04-16T08:09:29.745Z,992.5
2016-04-16T08:10:29.810Z,992.68
2016-04-16T08:11:29.813Z,992.58
2016-04-16T08:12:29.862Z,992.56
2016-04-16T08:13:29.912Z,992.51
2016-04-16T08:14:29.946Z,992.49
2016-04-16T08:15:29.995Z,992.6
2016-04-16T08:16:30.030Z,992.63
2016-04-16T08:17:30.052Z,992.66
2016-04-16T08:18:30.087Z,992.62
2016-04-16T08:19:30.121Z,992.58
2016-04-16T08:20:30.170Z,992.72
2016-04-16T08:21:30.203Z,992.68
2016-04-16T08:22:30.238Z,992.64
2016-04-16T08:23:30.287Z,992.48
2016-04-16T08:24:30.306Z,992.74
2016-04-16T08:25:30.355Z,992.72
2016-04-16T08:26:30.389Z,992.67
2016-04-16T08:27:30.439Z,992.7
2016-04-16T08:28:30.472Z,992.8
2016-04-16T08:29:30.506Z,992.67
2016-04-16T08:30:30.541Z,992.77
2016-04-16T08:31:30.590Z,992.72
2016-04-16T08:32:30.639Z,992.73
2016-04-16T08:33:30.658Z,992.67
2016-04-16T08:34:30.692Z,992.74
2016-04-16T08:35:30.725Z,992.72
2016-04-16T08:36:30.775Z,992.85
2016-04-16T08:37:30.810Z,992.79
2016-04-16T08:38:30.843Z,992.76
2016-04-16T08:39:30.877Z,992.77
2016-04-16T08:40:30.911Z,992.82
2016-04-16T08:41:30.960Z,992.8
2016-04-16T08:42:30.994Z,992.82
2016-04-16T08:43:31.029Z,992.83
2016-04-16T08:44:31.063Z,992.86
2016-04-16T08:45:31.097Z,992.85
2016-04-16T08:46:31.146Z,992.85
2016-04-16T08:47:31.180Z,992.85
2016-04-16T08:48:31.214Z,992.88
2016-04-16T08:49:31.248Z,992.93
2016-04-16T08:50:31.282Z,992.94
2016-04-16T08:51:31.332Z,992.94
2016-04-16T08:52:31.365Z,992.94
2016-04-16T08:53:31.415Z,992.98
2016-04-16T08:54:31.434Z,992.93
2016-04-16T08:55:31.467Z,993.03
2016-04-16T08:56:31.517Z,993.08
2016-04-16T08:57:31.566Z,993.02
2016-04-16T08:58:31.584Z,992.96
2016-04-16T08:59:31.618Z,993.1
2016-04-16T09:00:31.668Z,993.01
2016-04-16T09:01:31.702Z,993.04
2016-04-16T09:02:31.720Z,993
2016-04-16T09:03:31.770Z,993.04
2016-04-16T09:04:31.819Z,993.05
2016-04-16T09:05:31.853Z,993.13
2016-04-16T09:06:31.903Z,993.1
2016-04-16T09:07:31.937Z,993.11
2016-04-16T09:08:31.955Z,993.11
2016-04-16T09:09:31.989Z,993.1
2016-04-16T09:10:32.023Z,993.09
2016-04-16T09:11:32.072Z,993.1
2016-04-16T09:12:32.107Z,993.13
2016-04-16T09:13:32.140Z,993.11
2016-04-16T09:14:32.174Z,993.2
2016-04-16T09:15:32.224Z,993.15
2016-04-16T09:16:32.258Z,993.2
2016-04-16T09:17:32.293Z,993.2
2016-04-16T09:18:32.340Z,993.15
2016-04-16T09:19:32.375Z,993.17
2016-04-16T09:20:32.409Z,993.2
2016-04-16T09:21:32.443Z,993.15
2016-04-16T09:22:32.476Z,993.18
2016-04-16T09:23:32.527Z,993.17
2016-04-16T09:24:32.561Z,993.24
2016-04-16T09:25:32.595Z,993.28
2016-04-16T09:26:32.644Z,993.2
2016-04-16T09:27:32.678Z,993.2
2016-04-16T09:28:32.712Z,993.2
2016-04-16T09:29:32.746Z,993.21
2016-04-16T09:30:32.781Z,993.17
2016-04-16T09:31:32.830Z,993.21
2016-04-16T09:32:32.864Z,993.24
2016-04-16T09:33:32.897Z,993.24
2016-04-16T09:34:32.931Z,993.24
2016-04-16T09:35:32.980Z,993.29
2016-04-16T09:36:33.030Z,993.18
2016-04-16T09:37:33.049Z,993.19
2016-04-16T09:38:33.099Z,993.24
2016-04-16T09:39:33.133Z,993.38
2016-04-16T09:40:33.197Z,993.3
2016-04-16T09:41:33.200Z,993.3
2016-04-16T09:42:33.249Z,993.33
2016-04-16T09:43:33.283Z,993.32
2016-04-16T09:44:33.332Z,993.32
2016-04-16T09:45:33.367Z,993.32
2016-04-16T09:46:33.401Z,993.31
2016-04-16T09:47:33.435Z,993.25
2016-04-16T09:48:33.484Z,993.27
2016-04-16T09:49:33.518Z,993.35
2016-04-16T09:50:33.552Z,993.29
2016-04-16T09:51:33.602Z,993.33
2016-04-16T09:52:33.621Z,993.32
2016-04-16T09:53:33.654Z,993.31
2016-04-16T09:54:33.704Z,993.4
2016-04-16T09:55:33.722Z,993.28
2016-04-16T09:56:33.772Z,993.29
2016-04-16T09:57:33.821Z,993.28
2016-04-16T09:58:33.855Z,993.37
2016-04-16T09:59:33.889Z,993.39
2016-04-16T10:00:33.922Z,993.31
2016-04-16T10:01:33.957Z,993.37
2016-04-16T10:02:34.007Z,993.41
2016-04-16T10:03:34.041Z,993.31
2016-04-16T10:04:34.074Z,993.28
2016-04-16T10:05:34.108Z,993.27
2016-04-16T10:06:34.158Z,993.31
2016-04-16T10:07:34.192Z,993.39
2016-04-16T10:08:34.242Z,993.34
2016-04-16T10:09:34.275Z,993.34
2016-04-16T10:10:34.310Z,993.23
2016-04-16T10:11:34.344Z,993.44
2016-04-16T10:12:34.377Z,993.39
2016-04-16T10:13:34.396Z,993.4
2016-04-16T10:14:34.446Z,993.34
2016-04-16T10:15:34.495Z,993.35
2016-04-16T10:16:34.529Z,993.28
2016-04-16T10:17:34.563Z,993.33
2016-04-16T10:18:34.596Z,993.36
2016-04-16T10:19:34.630Z,993.38
2016-04-16T10:20:34.679Z,993.31
2016-04-16T10:21:34.729Z,993.38
2016-04-16T10:22:34.748Z,993.4
2016-04-16T10:23:34.782Z,993.4
2016-04-16T10:24:34.832Z,993.42
2016-04-16T10:25:34.865Z,993.4
2016-04-16T10:26:34.899Z,993.41
2016-04-16T10:27:34.933Z,993.39
2016-04-16T10:28:34.967Z,993.42
2016-04-16T10:29:35.016Z,993.4
2016-04-16T10:30:35.050Z,993.33
2016-04-16T10:31:35.084Z,993.4
2016-04-16T10:32:35.119Z,993.39
2016-04-16T10:33:35.152Z,993.4
2016-04-16T10:34:35.186Z,993.41
2016-04-16T10:35:35.220Z,993.38
2016-04-16T10:36:35.270Z,993.44
2016-04-16T10:37:35.304Z,993.39
2016-04-16T10:38:35.338Z,993.38
2016-04-16T10:39:35.372Z,993.39
2016-04-16T10:40:35.405Z,993.37
2016-04-16T10:41:35.455Z,993.39
2016-04-16T10:42:35.505Z,993.38
2016-04-16T10:43:35.539Z,993.44
2016-04-16T10:44:35.572Z,993.45
2016-04-16T10:45:35.622Z,993.42
2016-04-16T10:46:35.641Z,993.4
2016-04-16T10:47:35.690Z,993.49
2016-04-16T10:48:35.724Z,993.49
2016-04-16T10:49:35.757Z,993.52
2016-04-16T10:50:35.792Z,993.46
2016-04-16T10:51:35.856Z,993.49
2016-04-16T10:52:35.875Z,993.53
2016-04-16T10:53:35.909Z,993.54
2016-04-16T10:54:35.943Z,993.56
2016-04-16T10:55:35.976Z,993.59
2016-04-16T10:56:36.011Z,993.55
2016-04-16T10:57:36.061Z,993.7
2016-04-16T10:58:36.095Z,993.57
2016-04-16T10:59:36.129Z,993.63
2016-04-16T11:00:36.163Z,993.71
2016-04-16T11:01:36.212Z,993.63
2016-04-16T11:02:36.231Z,993.7
2016-04-16T11:03:36.280Z,993.71
2016-04-16T11:04:36.314Z,993.71
2016-04-16T11:05:36.363Z,993.62
2016-04-16T11:06:36.381Z,993.76
2016-04-16T11:07:36.431Z,993.73
2016-04-16T11:08:36.466Z,993.63
2016-04-16T11:09:36.500Z,993.7
2016-04-16T11:10:36.533Z,993.71
2016-04-16T11:11:36.567Z,993.71
2016-04-16T11:12:36.601Z,993.74
2016-04-16T11:13:36.650Z,993.68
2016-04-16T11:14:36.684Z,993.78
2016-04-16T11:15:36.718Z,993.78
2016-04-16T11:16:36.752Z,993.77
2016-04-16T11:17:36.802Z,993.78
2016-04-16T11:18:36.835Z,993.84
2016-04-16T11:19:36.870Z,993.8
2016-04-16T11:20:36.904Z,993.77
2016-04-16T11:21:36.954Z,993.83
2016-04-16T11:22:36.987Z,993.79
2016-04-16T11:23:37.021Z,993.86
2016-04-16T11:24:37.055Z,993.79
2016-04-16T11:25:37.089Z,993.76
2016-04-16T11:26:37.123Z,993.81
2016-04-16T11:27:37.157Z,993.76
2016-04-16T11:28:37.206Z,993.75
2016-04-16T11:29:37.256Z,993.72
2016-04-16T11:30:37.274Z,993.69
2016-04-16T11:31:37.309Z,993.75
2016-04-16T11:32:37.358Z,993.77
2016-04-16T11:33:37.392Z,993.68
2016-04-16T11:34:37.426Z,993.7
2016-04-16T11:35:37.459Z,993.69
2016-04-16T11:36:37.494Z,993.69
2016-04-16T11:37:37.544Z,993.74
2016-04-16T11:38:37.577Z,993.66
2016-04-16T11:39:37.611Z,993.63
2016-04-16T11:40:37.645Z,993.68
2016-04-16T11:41:37.694Z,993.69
2016-04-16T11:42:37.728Z,993.66
2016-04-16T11:43:37.763Z,993.74
2016-04-16T11:44:37.796Z,993.75
2016-04-16T11:45:37.830Z,993.84
2016-04-16T11:46:37.880Z,993.76
2016-04-16T11:47:37.913Z,993.75
2016-04-16T11:48:37.948Z,993.83
2016-04-16T11:49:37.982Z,993.91
2016-04-16T11:50:38.075Z,993.91
2016-04-16T11:51:38.153Z,993.81
2016-04-16T11:52:38.325Z,993.78
2016-04-16T11:53:38.308Z,993.74
2016-04-16T11:54:38.402Z,993.75
2016-04-16T11:55:38.454Z,993.82
2016-04-16T11:56:38.503Z,993.67
2016-04-16T11:57:38.568Z,993.73
2016-04-16T11:58:38.618Z,993.71
2016-04-16T11:59:38.667Z,993.7
2016-04-16T12:00:38.706Z,993.68
2016-04-16T12:01:38.763Z,993.72
2016-04-16T12:02:38.787Z,993.64
2016-04-16T12:03:38.842Z,993.63
2016-04-16T12:04:38.898Z,993.65
2016-04-16T12:05:38.964Z,993.57
2016-04-16T12:06:38.969Z,993.63
2016-04-16T12:07:39.022Z,993.53
2016-04-16T12:08:39.042Z,993.51
2016-04-16T12:09:39.079Z,993.51
2016-04-16T12:10:39.113Z,993.47
2016-04-16T12:11:39.180Z,993.43
2016-04-16T12:12:39.198Z,993.49
2016-04-16T12:13:39.233Z,993.52
2016-04-16T12:14:39.268Z,993.48
2016-04-16T12:15:39.333Z,993.43
2016-04-16T12:16:39.352Z,993.45
2016-04-16T12:17:39.387Z,993.47
2016-04-16T12:18:39.420Z,993.47
2016-04-16T12:19:39.456Z,993.46
2016-04-16T12:20:39.505Z,993.53
2016-04-16T12:21:39.539Z,993.52
2016-04-16T12:22:39.588Z,993.62
2016-04-16T12:23:39.622Z,993.53
2016-04-16T12:24:39.656Z,993.55
2016-04-16T12:25:39.753Z,993.56
2016-04-16T12:26:39.724Z,993.61
2016-04-16T12:27:39.774Z,993.69
2016-04-16T12:28:39.808Z,993.77
2016-04-16T12:29:39.841Z,993.67
2016-04-16T12:30:39.891Z,993.64
2016-04-16T12:31:39.925Z,993.6